sensor_id;sensor_type;location;lat;lon;timestamp;pressure;altitude;pressure_sealevel;temperature;humidity
78671;BME280;68277;52.724;6.516;2023-12-22T00:01:57;99806.59;;;5.65;90.91
78671;BME280;68277;52.724;6.516;2023-12-22T00:04:23;99838.69;;;5.79;89.01
78671;BME280;68277;52.724;6.516;2023-12-22T00:06:49;99799.78;;;5.53;91.97
78671;BME280;68277;52.724;6.516;2023-12-22T00:09:17;99816.31;;;5.60;91.75
78671;BME280;68277;52.724;6.516;2023-12-22T00:11:42;99827.72;;;5.56;93.22
78671;BME280;68277;52.724;6.516;2023-12-22T00:14:08;99834.63;;;5.62;89.93
78671;BME280;68277;52.724;6.516;2023-12-22T00:16:33;99828.50;;;5.61;91.14
78671;BME280;68277;52.724;6.516;2023-12-22T00:18:59;99816.47;;;5.49;92.16
78671;BME280;68277;52.724;6.516;2023-12-22T00:21:26;99837.22;;;5.65;92.53
78671;BME280;68277;52.724;6.516;2023-12-22T00:23:53;99839.91;;;5.60;90.66
78671;BME280;68277;52.724;6.516;2023-12-22T00:26:18;99806.00;;;5.49;91.31
78671;BME280;68277;52.724;6.516;2023-12-22T00:28:44;99847.81;;;5.59;87.36
78671;BME280;68277;52.724;6.516;2023-12-22T00:31:09;99839.88;;;5.62;86.35
78671;BME280;68277;52.724;6.516;2023-12-22T00:33:38;99833.94;;;5.52;90.18
78671;BME280;68277;52.724;6.516;2023-12-22T00:36:03;99855.81;;;5.52;90.25
78671;BME280;68277;52.724;6.516;2023-12-22T00:38:29;99839.34;;;5.43;89.15
78671;BME280;68277;52.724;6.516;2023-12-22T00:40:55;99836.72;;;5.43;89.28
78671;BME280;68277;52.724;6.516;2023-12-22T00:43:20;99850.81;;;5.39;87.19
78671;BME280;68277;52.724;6.516;2023-12-22T00:45:52;99876.78;;;5.52;88.92
78671;BME280;68277;52.724;6.516;2023-12-22T00:48:18;99902.19;;;5.50;90.21
78671;BME280;68277;52.724;6.516;2023-12-22T00:50:43;99849.97;;;5.35;90.85
78671;BME280;68277;52.724;6.516;2023-12-22T00:53:09;99852.50;;;5.40;92.16
78671;BME280;68277;52.724;6.516;2023-12-22T00:55:35;99885.81;;;5.35;91.95
78671;BME280;68277;52.724;6.516;2023-12-22T00:58:00;99874.84;;;5.12;93.78
78671;BME280;68277;52.724;6.516;2023-12-22T01:00:26;99853.28;;;4.93;93.30
78671;BME280;68277;52.724;6.516;2023-12-22T01:02:51;99843.63;;;4.95;92.83
78671;BME280;68277;52.724;6.516;2023-12-22T01:05:17;99881.06;;;5.05;92.84
78671;BME280;68277;52.724;6.516;2023-12-22T01:07:43;99865.94;;;5.22;91.89
78671;BME280;68277;52.724;6.516;2023-12-22T01:10:08;99869.31;;;5.30;90.39
78671;BME280;68277;52.724;6.516;2023-12-22T01:12:34;99900.66;;;5.39;88.50
78671;BME280;68277;52.724;6.516;2023-12-22T01:15:00;99881.34;;;5.43;90.24
78671;BME280;68277;52.724;6.516;2023-12-22T01:17:26;99896.19;;;5.42;85.69
78671;BME280;68277;52.724;6.516;2023-12-22T01:19:52;99880.34;;;5.50;87.34
78671;BME280;68277;52.724;6.516;2023-12-22T01:22:17;99865.53;;;5.46;85.08
78671;BME280;68277;52.724;6.516;2023-12-22T01:24:43;99888.13;;;5.54;86.10
78671;BME280;68277;52.724;6.516;2023-12-22T01:27:10;99874.28;;;5.45;85.97
78671;BME280;68277;52.724;6.516;2023-12-22T01:29:36;99878.63;;;5.47;84.58
78671;BME280;68277;52.724;6.516;2023-12-22T01:32:01;99889.97;;;5.49;84.14
78671;BME280;68277;52.724;6.516;2023-12-22T01:34:27;99903.84;;;5.56;86.50
78671;BME280;68277;52.724;6.516;2023-12-22T01:36:53;99918.66;;;5.60;87.54
78671;BME280;68277;52.724;6.516;2023-12-22T01:39:19;99895.31;;;5.43;88.05
78671;BME280;68277;52.724;6.516;2023-12-22T01:41:45;99932.63;;;5.62;87.47
78671;BME280;68277;52.724;6.516;2023-12-22T01:44:10;99938.66;;;5.66;86.88
78671;BME280;68277;52.724;6.516;2023-12-22T01:46:36;99941.38;;;5.63;88.54
78671;BME280;68277;52.724;6.516;2023-12-22T01:49:02;99950.03;;;5.66;89.35
78671;BME280;68277;52.724;6.516;2023-12-22T01:51:32;99938.88;;;5.53;90.34
78671;BME280;68277;52.724;6.516;2023-12-22T01:53:59;99917.09;;;5.48;89.38
78671;BME280;68277;52.724;6.516;2023-12-22T01:56:27;99944.91;;;5.60;91.61
78671;BME280;68277;52.724;6.516;2023-12-22T01:58:55;99893.84;;;5.26;92.34
78671;BME280;68277;52.724;6.516;2023-12-22T02:01:23;99889.69;;;5.13;92.51
78671;BME280;68277;52.724;6.516;2023-12-22T02:03:49;99895.75;;;5.16;91.96
78671;BME280;68277;52.724;6.516;2023-12-22T02:06:18;99916.47;;;5.33;91.70
78671;BME280;68277;52.724;6.516;2023-12-22T02:08:47;99944.25;;;5.44;94.10
78671;BME280;68277;52.724;6.516;2023-12-22T02:11:13;99940.81;;;5.44;93.34
78671;BME280;68277;52.724;6.516;2023-12-22T02:13:40;99880.78;;;5.24;93.52
78671;BME280;68277;52.724;6.516;2023-12-22T02:16:13;99889.28;;;5.38;92.68
78671;BME280;68277;52.724;6.516;2023-12-22T02:18:43;99905.75;;;5.46;93.85
78671;BME280;68277;52.724;6.516;2023-12-22T02:21:09;99930.84;;;5.64;95.59
78671;BME280;68277;52.724;6.516;2023-12-22T02:23:36;99886.41;;;5.52;95.36
78671;BME280;68277;52.724;6.516;2023-12-22T02:26:10;99870.16;;;5.32;96.65
78671;BME280;68277;52.724;6.516;2023-12-22T02:28:39;99892.78;;;5.37;97.81
78671;BME280;68277;52.724;6.516;2023-12-22T02:31:33;99918.88;;;5.46;97.67
78671;BME280;68277;52.724;6.516;2023-12-22T02:34:04;99918.09;;;5.40;98.70
78671;BME280;68277;52.724;6.516;2023-12-22T02:36:35;99918.38;;;5.23;100.00
78671;BME280;68277;52.724;6.516;2023-12-22T02:39:02;99985.44;;;5.39;100.00
78671;BME280;68277;52.724;6.516;2023-12-22T02:41:28;99937.78;;;5.13;100.00
78671;BME280;68277;52.724;6.516;2023-12-22T02:43:54;99910.13;;;4.91;100.00
78671;BME280;68277;52.724;6.516;2023-12-22T02:46:20;99906.88;;;4.75;100.00
78671;BME280;68277;52.724;6.516;2023-12-22T02:48:46;99921.78;;;4.70;100.00
78671;BME280;68277;52.724;6.516;2023-12-22T02:51:11;99920.06;;;4.68;100.00
78671;BME280;68277;52.724;6.516;2023-12-22T02:53:37;99911.50;;;4.55;100.00
78671;BME280;68277;52.724;6.516;2023-12-22T02:56:02;99939.22;;;4.73;100.00
78671;BME280;68277;52.724;6.516;2023-12-22T02:58:28;99911.41;;;4.63;100.00
78671;BME280;68277;52.724;6.516;2023-12-22T03:00:54;99916.53;;;4.70;100.00
78671;BME280;68277;52.724;6.516;2023-12-22T03:03:19;99917.28;;;4.80;100.00
78671;BME280;68277;52.724;6.516;2023-12-22T03:05:44;99930.31;;;4.83;100.00
78671;BME280;68277;52.724;6.516;2023-12-22T03:08:10;99913.84;;;4.73;100.00
78671;BME280;68277;52.724;6.516;2023-12-22T03:10:35;99931.16;;;4.87;100.00
78671;BME280;68277;52.724;6.516;2023-12-22T03:13:01;99939.00;;;4.88;100.00
78671;BME280;68277;52.724;6.516;2023-12-22T03:15:27;99923.44;;;4.76;100.00
78671;BME280;68277;52.724;6.516;2023-12-22T03:17:52;99917.44;;;4.66;100.00
78671;BME280;68277;52.724;6.516;2023-12-22T03:20:18;99865.41;;;4.42;100.00
78671;BME280;68277;52.724;6.516;2023-12-22T03:22:43;99899.25;;;4.56;100.00
78671;BME280;68277;52.724;6.516;2023-12-22T03:25:09;99933.25;;;4.60;100.00
78671;BME280;68277;52.724;6.516;2023-12-22T03:27:34;99907.34;;;4.39;100.00
78671;BME280;68277;52.724;6.516;2023-12-22T03:30:00;99891.81;;;4.23;100.00
78671;BME280;68277;52.724;6.516;2023-12-22T03:32:27;99917.03;;;4.33;100.00
78671;BME280;68277;52.724;6.516;2023-12-22T03:34:52;99924.91;;;4.30;100.00
78671;BME280;68277;52.724;6.516;2023-12-22T03:37:18;99942.38;;;4.31;100.00
78671;BME280;68277;52.724;6.516;2023-12-22T03:39:43;99931.25;;;4.12;100.00
78671;BME280;68277;52.724;6.516;2023-12-22T03:42:09;99916.50;;;4.02;100.00
78671;BME280;68277;52.724;6.516;2023-12-22T03:44:35;99922.63;;;4.01;100.00
78671;BME280;68277;52.724;6.516;2023-12-22T03:47:01;99922.69;;;3.93;100.00
78671;BME280;68277;52.724;6.516;2023-12-22T03:49:26;99923.56;;;3.95;100.00
78671;BME280;68277;52.724;6.516;2023-12-22T03:51:51;99918.31;;;3.94;100.00
78671;BME280;68277;52.724;6.516;2023-12-22T03:54:17;99941.72;;;4.07;100.00
78671;BME280;68277;52.724;6.516;2023-12-22T03:56:43;99911.47;;;3.84;100.00
78671;BME280;68277;52.724;6.516;2023-12-22T03:59:08;99958.34;;;4.06;100.00
78671;BME280;68277;52.724;6.516;2023-12-22T04:01:34;99931.44;;;3.92;100.00
78671;BME280;68277;52.724;6.516;2023-12-22T04:03:59;99916.59;;;3.93;100.00
78671;BME280;68277;52.724;6.516;2023-12-22T04:06:25;99903.50;;;3.94;100.00
78671;BME280;68277;52.724;6.516;2023-12-22T04:08:50;99941.66;;;4.15;100.00
78671;BME280;68277;52.724;6.516;2023-12-22T04:11:16;99909.56;;;3.96;100.00
78671;BME280;68277;52.724;6.516;2023-12-22T04:13:41;99939.16;;;4.06;100.00
78671;BME280;68277;52.724;6.516;2023-12-22T04:16:07;99929.44;;;4.15;100.00
78671;BME280;68277;52.724;6.516;2023-12-22T04:18:33;99923.31;;;4.15;100.00
78671;BME280;68277;52.724;6.516;2023-12-22T04:20:58;99925.06;;;4.14;100.00
78671;BME280;68277;52.724;6.516;2023-12-22T04:23:24;99915.53;;;4.12;100.00
78671;BME280;68277;52.724;6.516;2023-12-22T04:25:49;99938.09;;;4.24;100.00
78671;BME280;68277;52.724;6.516;2023-12-22T04:28:15;99966.59;;;4.48;100.00
78671;BME280;68277;52.724;6.516;2023-12-22T04:30:41;99959.66;;;4.47;100.00
78671;BME280;68277;52.724;6.516;2023-12-22T04:33:06;99950.81;;;4.52;100.00
78671;BME280;68277;52.724;6.516;2023-12-22T04:35:32;99942.94;;;4.55;100.00
78671;BME280;68277;52.724;6.516;2023-12-22T04:37:57;99947.00;;;4.79;100.00
78671;BME280;68277;52.724;6.516;2023-12-22T04:40:23;99962.53;;;4.93;100.00
78671;BME280;68277;52.724;6.516;2023-12-22T04:42:48;99936.56;;;4.74;100.00
78671;BME280;68277;52.724;6.516;2023-12-22T04:45:16;99967.59;;;5.06;100.00
78671;BME280;68277;52.724;6.516;2023-12-22T04:47:42;99963.28;;;5.02;99.61
78671;BME280;68277;52.724;6.516;2023-12-22T04:50:08;99976.88;;;5.28;98.73
78671;BME280;68277;52.724;6.516;2023-12-22T04:52:34;99985.66;;;5.27;99.41
78671;BME280;68277;52.724;6.516;2023-12-22T04:55:00;99965.75;;;5.11;99.57
78671;BME280;68277;52.724;6.516;2023-12-22T04:57:25;99970.16;;;5.11;100.00
78671;BME280;68277;52.724;6.516;2023-12-22T04:59:51;99986.66;;;5.17;100.00
78671;BME280;68277;52.724;6.516;2023-12-22T05:02:17;99973.78;;;5.01;100.00
78671;BME280;68277;52.724;6.516;2023-12-22T05:04:42;99967.72;;;4.99;100.00
78671;BME280;68277;52.724;6.516;2023-12-22T05:07:08;99948.59;;;4.92;100.00
78671;BME280;68277;52.724;6.516;2023-12-22T05:09:35;99981.63;;;5.04;100.00
78671;BME280;68277;52.724;6.516;2023-12-22T05:12:00;99965.22;;;4.88;100.00
78671;BME280;68277;52.724;6.516;2023-12-22T05:14:26;99990.34;;;5.06;100.00
78671;BME280;68277;52.724;6.516;2023-12-22T05:16:51;100004.22;;;5.12;100.00
78671;BME280;68277;52.724;6.516;2023-12-22T05:19:21;100003.25;;;5.19;100.00
78671;BME280;68277;52.724;6.516;2023-12-22T05:21:46;99978.97;;;5.05;100.00
78671;BME280;68277;52.724;6.516;2023-12-22T05:24:11;99984.09;;;5.16;100.00
78671;BME280;68277;52.724;6.516;2023-12-22T05:26:37;100004.00;;;5.29;100.00
78671;BME280;68277;52.724;6.516;2023-12-22T05:29:03;99979.75;;;5.13;100.00
78671;BME280;68277;52.724;6.516;2023-12-22T05:31:28;100001.41;;;5.26;100.00
78671;BME280;68277;52.724;6.516;2023-12-22T05:33:54;100000.53;;;5.27;100.00
78671;BME280;68277;52.724;6.516;2023-12-22T05:36:20;99973.59;;;5.16;100.00
78671;BME280;68277;52.724;6.516;2023-12-22T05:38:46;99983.81;;;5.32;100.00
78671;BME280;68277;52.724;6.516;2023-12-22T05:41:14;100015.03;;;5.49;100.00
78671;BME280;68277;52.724;6.516;2023-12-22T05:43:41;99995.22;;;5.31;100.00
78671;BME280;68277;52.724;6.516;2023-12-22T05:46:06;100030.81;;;5.47;100.00
78671;BME280;68277;52.724;6.516;2023-12-22T05:48:33;100009.06;;;5.39;100.00
78671;BME280;68277;52.724;6.516;2023-12-22T05:50:59;100016.81;;;5.48;100.00
78671;BME280;68277;52.724;6.516;2023-12-22T05:53:24;100014.16;;;5.50;100.00
78671;BME280;68277;52.724;6.516;2023-12-22T05:55:50;100018.31;;;5.65;100.00
78671;BME280;68277;52.724;6.516;2023-12-22T05:58:16;100027.84;;;5.70;99.92
78671;BME280;68277;52.724;6.516;2023-12-22T06:00:41;100004.38;;;5.61;99.62
78671;BME280;68277;52.724;6.516;2023-12-22T06:03:08;100006.94;;;5.64;97.02
78671;BME280;68277;52.724;6.516;2023-12-22T06:05:33;100010.41;;;5.66;98.58
78671;BME280;68277;52.724;6.516;2023-12-22T06:07:59;99988.72;;;5.53;97.34
78671;BME280;68277;52.724;6.516;2023-12-22T06:10:24;100025.22;;;5.70;97.86
78671;BME280;68277;52.724;6.516;2023-12-22T06:12:50;100006.91;;;5.66;98.83
78671;BME280;68277;52.724;6.516;2023-12-22T06:15:15;100001.69;;;5.64;96.51
78671;BME280;68277;52.724;6.516;2023-12-22T06:17:41;100028.56;;;5.81;99.42
78671;BME280;68277;52.724;6.516;2023-12-22T06:20:07;100012.25;;;5.61;97.81
78671;BME280;68277;52.724;6.516;2023-12-22T06:22:33;100011.50;;;5.51;97.91
78671;BME280;68277;52.724;6.516;2023-12-22T06:24:58;100015.69;;;5.63;97.00
78671;BME280;68277;52.724;6.516;2023-12-22T06:27:24;100011.28;;;5.67;96.35
78671;BME280;68277;52.724;6.516;2023-12-22T06:29:50;99994.84;;;5.56;96.01
78671;BME280;68277;52.724;6.516;2023-12-22T06:32:16;100021.69;;;5.73;96.86
78671;BME280;68277;52.724;6.516;2023-12-22T06:34:42;100039.94;;;5.80;96.86
78671;BME280;68277;52.724;6.516;2023-12-22T06:37:08;100036.59;;;5.71;97.96
78671;BME280;68277;52.724;6.516;2023-12-22T06:39:34;100020.03;;;5.67;99.29
78671;BME280;68277;52.724;6.516;2023-12-22T06:42:00;100007.09;;;5.55;98.31
78671;BME280;68277;52.724;6.516;2023-12-22T06:44:25;100012.31;;;5.58;97.90
78671;BME280;68277;52.724;6.516;2023-12-22T06:46:51;100025.22;;;5.70;98.81
78671;BME280;68277;52.724;6.516;2023-12-22T06:49:17;100001.81;;;5.57;98.74
78671;BME280;68277;52.724;6.516;2023-12-22T06:51:43;100010.47;;;5.62;97.77
78671;BME280;68277;52.724;6.516;2023-12-22T06:54:08;100054.69;;;5.89;97.57
78671;BME280;68277;52.724;6.516;2023-12-22T06:56:35;100037.28;;;5.83;98.49
78671;BME280;68277;52.724;6.516;2023-12-22T06:59:00;100051.22;;;5.88;99.93
78671;BME280;68277;52.724;6.516;2023-12-22T07:01:31;100019.13;;;5.70;99.05
78671;BME280;68277;52.724;6.516;2023-12-22T07:03:57;100052.16;;;5.83;99.92
78671;BME280;68277;52.724;6.516;2023-12-22T07:06:24;100036.56;;;5.74;99.91
78671;BME280;68277;52.724;6.516;2023-12-22T07:11:50;100059.88;;;5.95;100.00
78671;BME280;68277;52.724;6.516;2023-12-22T07:14:16;100026.88;;;5.76;100.00
78671;BME280;68277;52.724;6.516;2023-12-22T07:16:42;100052.00;;;5.95;100.00
78671;BME280;68277;52.724;6.516;2023-12-22T07:19:08;100022.50;;;5.75;100.00
78671;BME280;68277;52.724;6.516;2023-12-22T07:21:33;100039.03;;;5.86;100.00
78671;BME280;68277;52.724;6.516;2023-12-22T07:23:59;100028.75;;;5.69;100.00
78671;BME280;68277;52.724;6.516;2023-12-22T07:26:26;100031.53;;;5.60;100.00
78671;BME280;68277;52.724;6.516;2023-12-22T07:28:52;100051.56;;;5.64;100.00
78671;BME280;68277;52.724;6.516;2023-12-22T07:31:18;100048.91;;;5.67;100.00
78671;BME280;68277;52.724;6.516;2023-12-22T07:33:44;100052.31;;;5.74;100.00
78671;BME280;68277;52.724;6.516;2023-12-22T07:36:09;100053.94;;;5.81;100.00
78671;BME280;68277;52.724;6.516;2023-12-22T07:38:38;100016.59;;;5.62;100.00
78671;BME280;68277;52.724;6.516;2023-12-22T07:41:07;100060.09;;;5.78;100.00
78671;BME280;68277;52.724;6.516;2023-12-22T07:43:32;100069.72;;;5.79;100.00
78671;BME280;68277;52.724;6.516;2023-12-22T07:45:58;100040.13;;;5.68;100.00
78671;BME280;68277;52.724;6.516;2023-12-22T07:48:24;100065.56;;;5.65;100.00
78671;BME280;68277;52.724;6.516;2023-12-22T07:50:50;100076.78;;;5.76;100.00
78671;BME280;68277;52.724;6.516;2023-12-22T07:53:16;100062.88;;;5.68;100.00
78671;BME280;68277;52.724;6.516;2023-12-22T07:55:42;100074.09;;;5.79;100.00
78671;BME280;68277;52.724;6.516;2023-12-22T07:58:08;100046.19;;;5.73;100.00
78671;BME280;68277;52.724;6.516;2023-12-22T08:00:37;100010.63;;;5.52;100.00
78671;BME280;68277;52.724;6.516;2023-12-22T08:03:05;100014.22;;;5.47;100.00
78671;BME280;68277;52.724;6.516;2023-12-22T08:05:31;100036.78;;;5.60;100.00
78671;BME280;68277;52.724;6.516;2023-12-22T08:07:59;100068.13;;;5.69;100.00
78671;BME280;68277;52.724;6.516;2023-12-22T08:10:24;100080.28;;;5.75;100.00
78671;BME280;68277;52.724;6.516;2023-12-22T08:12:50;100062.75;;;5.75;100.00
78671;BME280;68277;52.724;6.516;2023-12-22T08:15:22;100045.44;;;5.64;100.00
78671;BME280;68277;52.724;6.516;2023-12-22T08:17:50;100065.44;;;5.74;100.00
78671;BME280;68277;52.724;6.516;2023-12-22T08:20:20;100076.69;;;5.80;100.00
78671;BME280;68277;52.724;6.516;2023-12-22T08:22:47;100071.41;;;5.82;100.00
78671;BME280;68277;52.724;6.516;2023-12-22T08:25:13;99984.78;;;5.27;100.00
78671;BME280;68277;52.724;6.516;2023-12-22T08:27:38;100083.59;;;5.90;100.00
78671;BME280;68277;52.724;6.516;2023-12-22T08:30:05;100048.72;;;5.78;100.00
78671;BME280;68277;52.724;6.516;2023-12-22T08:32:30;100047.09;;;5.71;100.00
78671;BME280;68277;52.724;6.516;2023-12-22T08:34:56;100039.06;;;5.80;100.00
78671;BME280;68277;52.724;6.516;2023-12-22T08:37:21;100025.13;;;5.75;100.00
78671;BME280;68277;52.724;6.516;2023-12-22T08:39:47;100056.53;;;5.84;100.00
78671;BME280;68277;52.724;6.516;2023-12-22T08:42:13;100040.88;;;5.75;100.00
78671;BME280;68277;52.724;6.516;2023-12-22T08:44:38;100064.41;;;5.82;100.00
78671;BME280;68277;52.724;6.516;2023-12-22T08:47:04;100041.88;;;5.69;100.00
78671;BME280;68277;52.724;6.516;2023-12-22T08:49:29;100043.59;;;5.72;100.00
78671;BME280;68277;52.724;6.516;2023-12-22T08:51:55;100068.06;;;5.74;100.00
78671;BME280;68277;52.724;6.516;2023-12-22T08:54:21;100069.88;;;5.69;100.00
78671;BME280;68277;52.724;6.516;2023-12-22T08:56:59;100068.94;;;5.74;100.00
78671;BME280;68277;52.724;6.516;2023-12-22T08:59:25;100049.91;;;5.60;100.00
78671;BME280;68277;52.724;6.516;2023-12-22T09:01:50;100056.84;;;5.61;100.00
78671;BME280;68277;52.724;6.516;2023-12-22T09:04:16;100068.94;;;5.73;100.00
78671;BME280;68277;52.724;6.516;2023-12-22T09:06:41;100094.19;;;5.81;100.00
78671;BME280;68277;52.724;6.516;2023-12-22T09:09:07;100093.25;;;5.88;100.00
78671;BME280;68277;52.724;6.516;2023-12-22T09:11:34;100079.28;;;5.85;100.00
78671;BME280;68277;52.724;6.516;2023-12-22T09:14:00;100064.41;;;5.85;100.00
78671;BME280;68277;52.724;6.516;2023-12-22T09:16:33;100062.53;;;5.93;100.00
78671;BME280;68277;52.724;6.516;2023-12-22T09:18:59;100082.41;;;6.08;100.00
78671;BME280;68277;52.724;6.516;2023-12-22T09:21:25;100040.72;;;5.88;100.00
78671;BME280;68277;52.724;6.516;2023-12-22T09:23:50;100069.22;;;6.11;100.00
78671;BME280;68277;52.724;6.516;2023-12-22T09:26:16;100037.13;;;5.94;100.00
78671;BME280;68277;52.724;6.516;2023-12-22T09:28:42;99999.75;;;5.75;100.00
78671;BME280;68277;52.724;6.516;2023-12-22T09:31:08;100021.50;;;5.85;100.00
78671;BME280;68277;52.724;6.516;2023-12-22T09:33:35;100003.28;;;5.73;100.00
78671;BME280;68277;52.724;6.516;2023-12-22T09:36:04;100052.06;;;5.90;100.00
78671;BME280;68277;52.724;6.516;2023-12-22T09:38:30;100084.28;;;6.03;100.00
78671;BME280;68277;52.724;6.516;2023-12-22T09:40:56;100074.00;;;5.88;100.00
78671;BME280;68277;52.724;6.516;2023-12-22T09:43:22;100094.81;;;5.98;100.00
78671;BME280;68277;52.724;6.516;2023-12-22T09:45:49;100049.72;;;5.72;100.00
78671;BME280;68277;52.724;6.516;2023-12-22T09:48:17;100067.94;;;5.80;100.00
78671;BME280;68277;52.724;6.516;2023-12-22T09:50:46;100080.13;;;5.87;100.00
78671;BME280;68277;52.724;6.516;2023-12-22T09:53:13;100087.16;;;5.83;100.00
78671;BME280;68277;52.724;6.516;2023-12-22T09:55:44;100071.47;;;5.77;100.00
78671;BME280;68277;52.724;6.516;2023-12-22T09:58:12;100051.56;;;5.64;100.00
78671;BME280;68277;52.724;6.516;2023-12-22T10:00:38;100035.16;;;5.50;100.00
78671;BME280;68277;52.724;6.516;2023-12-22T10:03:09;100030.03;;;5.42;100.00
78671;BME280;68277;52.724;6.516;2023-12-22T10:05:39;100039.56;;;5.48;100.00
78671;BME280;68277;52.724;6.516;2023-12-22T10:08:06;100051.72;;;5.53;100.00
78671;BME280;68277;52.724;6.516;2023-12-22T10:10:32;100041.28;;;5.50;100.00
78671;BME280;68277;52.724;6.516;2023-12-22T10:12:59;100037.88;;;5.44;100.00
78671;BME280;68277;52.724;6.516;2023-12-22T10:15:25;100060.28;;;5.66;100.00
78671;BME280;68277;52.724;6.516;2023-12-22T10:17:52;100061.16;;;5.67;100.00
78671;BME280;68277;52.724;6.516;2023-12-22T10:20:18;100060.25;;;5.69;100.00
78671;BME280;68277;52.724;6.516;2023-12-22T10:22:43;100039.47;;;5.56;100.00
78671;BME280;68277;52.724;6.516;2023-12-22T10:25:19;100057.63;;;5.69;100.00
78671;BME280;68277;52.724;6.516;2023-12-22T10:27:45;100045.44;;;5.65;100.00
78671;BME280;68277;52.724;6.516;2023-12-22T10:30:11;100062.75;;;5.75;100.00
78671;BME280;68277;52.724;6.516;2023-12-22T10:32:40;100033.22;;;5.61;100.00
78671;BME280;68277;52.724;6.516;2023-12-22T10:35:09;100025.34;;;5.63;100.00
78671;BME280;68277;52.724;6.516;2023-12-22T10:37:34;100038.16;;;5.85;100.00
78671;BME280;68277;52.724;6.516;2023-12-22T10:40:04;100016.31;;;5.80;100.00
78671;BME280;68277;52.724;6.516;2023-12-22T10:42:29;100026.78;;;5.82;100.00
78671;BME280;68277;52.724;6.516;2023-12-22T10:44:55;99992.84;;;5.71;100.00
78671;BME280;68277;52.724;6.516;2023-12-22T10:47:22;99994.59;;;5.72;100.00
78671;BME280;68277;52.724;6.516;2023-12-22T10:49:48;99998.72;;;5.87;100.00
78671;BME280;68277;52.724;6.516;2023-12-22T10:52:18;100008.06;;;6.04;100.00
78671;BME280;68277;52.724;6.516;2023-12-22T10:54:46;100008.03;;;6.07;100.00
78671;BME280;68277;52.724;6.516;2023-12-22T10:57:32;99974.16;;;5.91;100.00
78671;BME280;68277;52.724;6.516;2023-12-22T11:00:03;100025.41;;;6.14;100.00
78671;BME280;68277;52.724;6.516;2023-12-22T11:02:30;99949.97;;;5.72;100.00
78671;BME280;68277;52.724;6.516;2023-12-22T11:05:03;99882.38;;;5.34;100.00
78671;BME280;68277;52.724;6.516;2023-12-22T11:07:35;99880.56;;;5.36;100.00
78671;BME280;68277;52.724;6.516;2023-12-22T11:10:06;99976.00;;;5.86;100.00
78671;BME280;68277;52.724;6.516;2023-12-22T11:12:36;99974.25;;;5.85;100.00
78671;BME280;68277;52.724;6.516;2023-12-22T11:15:06;99991.56;;;5.98;100.00
78671;BME280;68277;52.724;6.516;2023-12-22T11:17:36;99967.34;;;5.78;100.00
78671;BME280;68277;52.724;6.516;2023-12-22T11:20:06;99900.50;;;5.48;100.00
78671;BME280;68277;52.724;6.516;2023-12-22T11:22:36;99956.78;;;5.81;100.00
78671;BME280;68277;52.724;6.516;2023-12-22T11:25:02;99938.47;;;5.79;100.00
78671;BME280;68277;52.724;6.516;2023-12-22T11:27:30;99975.72;;;6.02;100.00
78671;BME280;68277;52.724;6.516;2023-12-22T11:30:03;100026.88;;;6.29;100.00
78671;BME280;68277;52.724;6.516;2023-12-22T11:32:29;99944.53;;;5.80;100.00
78671;BME280;68277;52.724;6.516;2023-12-22T11:34:57;100025.19;;;6.25;100.00
78671;BME280;68277;52.724;6.516;2023-12-22T11:37:25;99941.88;;;5.83;100.00
78671;BME280;68277;52.724;6.516;2023-12-22T11:39:53;99954.81;;;5.95;100.00
78671;BME280;68277;52.724;6.516;2023-12-22T11:42:27;99885.13;;;5.76;100.00
78671;BME280;68277;52.724;6.516;2023-12-22T11:44:53;99936.22;;;6.05;100.00
78671;BME280;68277;52.724;6.516;2023-12-22T11:47:23;99955.34;;;6.13;100.00
78671;BME280;68277;52.724;6.516;2023-12-22T11:49:48;99951.13;;;6.06;100.00
78671;BME280;68277;52.724;6.516;2023-12-22T11:52:18;99906.88;;;5.82;100.00
78671;BME280;68277;52.724;6.516;2023-12-22T12:00:52;99953.78;;;6.05;100.00
78671;BME280;68277;52.724;6.516;2023-12-22T12:03:18;99952.00;;;6.05;100.00
78671;BME280;68277;52.724;6.516;2023-12-22T12:05:44;99958.72;;;6.22;100.00
78671;BME280;68277;52.724;6.516;2023-12-22T12:08:10;99953.56;;;6.17;100.00
78671;BME280;68277;52.724;6.516;2023-12-22T12:13:15;99942.81;;;6.28;100.00
78671;BME280;68277;52.724;6.516;2023-12-22T12:15:41;99944.56;;;6.29;100.00
78671;BME280;68277;52.724;6.516;2023-12-22T12:18:08;99915.06;;;6.14;100.00
78671;BME280;68277;52.724;6.516;2023-12-22T12:20:34;99961.84;;;6.40;100.00
78671;BME280;68277;52.724;6.516;2023-12-22T12:23:01;99943.66;;;6.31;100.00
78671;BME280;68277;52.724;6.516;2023-12-22T12:25:32;99941.84;;;6.33;100.00
78671;BME280;68277;52.724;6.516;2023-12-22T12:28:05;99939.38;;;6.26;100.00
78671;BME280;68277;52.724;6.516;2023-12-22T12:30:31;99949.50;;;6.44;100.00
78671;BME280;68277;52.724;6.516;2023-12-22T12:33:11;99953.88;;;6.45;100.00
78671;BME280;68277;52.724;6.516;2023-12-22T12:35:41;99950.28;;;6.49;100.00
78671;BME280;68277;52.724;6.516;2023-12-22T12:38:09;99954.63;;;6.51;100.00
78671;BME280;68277;52.724;6.516;2023-12-22T12:40:37;99952.00;;;6.51;100.00
78671;BME280;68277;52.724;6.516;2023-12-22T12:43:06;99944.31;;;6.41;100.00
78671;BME280;68277;52.724;6.516;2023-12-22T12:45:31;99921.66;;;6.35;100.00
78671;BME280;68277;52.724;6.516;2023-12-22T12:48:01;99930.81;;;6.57;100.00
78671;BME280;68277;52.724;6.516;2023-12-22T12:50:28;99875.25;;;6.34;100.00
78671;BME280;68277;52.724;6.516;2023-12-22T12:52:55;99900.31;;;6.50;100.00
78671;BME280;68277;52.724;6.516;2023-12-22T12:55:25;99923.72;;;6.62;100.00
78671;BME280;68277;52.724;6.516;2023-12-22T12:57:52;99888.03;;;6.51;100.00
78671;BME280;68277;52.724;6.516;2023-12-22T13:00:25;99921.91;;;6.66;100.00
78671;BME280;68277;52.724;6.516;2023-12-22T13:02:51;99892.31;;;6.56;100.00
78671;BME280;68277;52.724;6.516;2023-12-22T13:05:24;99908.94;;;6.57;100.00
78671;BME280;68277;52.724;6.516;2023-12-22T13:07:49;99903.03;;;6.47;100.00
78671;BME280;68277;52.724;6.516;2023-12-22T13:10:22;99920.44;;;6.51;100.00